Time;durP1;ratioP1;P1;durP2;ratioP2;P2;SDS_P1;SDS_P2;PMS_P1;PMS_P2;Temp;Humidity;BMP_temperature;BMP_pressure;BME280_temperature;BME280_humidity;BME280_pressure;Samples;Min_cycle;Max_cycle;Signal;HPM_P1;HPM_P2
2022/10/02 00:00:28;;;;;;;6.03;2.63;;;15.60;99.90;;;;;;4991473;28;20042;-69
2022/10/02 00:03:04;;;;;;;5.10;2.80;;;15.60;99.90;;;;;;4925160;29;20046;-69
2022/10/02 00:05:40;;;;;;;9.98;2.63;;;15.50;99.90;;;;;;4933395;29;20513;-68
2022/10/02 00:08:18;;;;;;;6.78;2.55;;;15.50;99.90;;;;;;4936272;28;20051;-67
2022/10/02 00:11:21;;;;;;;6.90;2.35;;;15.30;99.90;;;;;;4971925;28;20031;-69
2022/10/02 00:13:55;;;;;;;7.72;2.88;;;15.30;99.90;;;;;;4971781;28;20078;-63
2022/10/02 00:16:33;;;;;;;4.32;2.53;;;15.30;99.90;;;;;;4972030;28;20098;-69
2022/10/02 00:18:59;;;;;;;4.40;1.83;;;15.30;99.90;;;;;;4971601;28;20536;-68
2022/10/02 00:21:34;;;;;;;5.53;2.80;;;15.20;99.90;;;;;;4971916;28;20058;-69
2022/10/02 00:24:02;;;;;;;5.25;2.22;;;15.20;99.90;;;;;;4971868;28;20527;-69
2022/10/02 00:26:39;;;;;;;4.32;2.50;;;15.20;99.90;;;;;;4971823;28;20035;-69
2022/10/02 00:29:14;;;;;;;5.25;2.75;;;15.10;99.90;;;;;;4971819;28;20088;-69
2022/10/02 00:32:21;;;;;;;8.05;2.75;;;15.20;99.90;;;;;;4971522;28;20404;-69
2022/10/02 00:34:49;;;;;;;5.35;3.17;;;15.10;99.90;;;;;;4971579;28;21312;-68
2022/10/02 00:37:37;;;;;;;7.00;2.97;;;15.20;99.90;;;;;;4970944;28;20525;-69
2022/10/02 00:40:21;;;;;;;5.65;2.47;;;15.30;99.90;;;;;;5032343;28;20379;-65
2022/10/02 00:42:52;;;;;;;3.83;2.13;;;15.20;99.90;;;;;;5032461;28;20100;-69
2022/10/02 00:45:37;;;;;;;7.00;2.55;;;15.30;99.90;;;;;;5031914;28;20045;-68
2022/10/02 00:48:24;;;;;;;3.45;2.38;;;15.30;99.90;;;;;;5032358;28;20480;-68
2022/10/02 00:50:49;;;;;;;3.78;2.25;;;15.20;99.90;;;;;;5032106;28;20037;-68
2022/10/02 00:53:46;;;;;;;7.45;2.40;;;15.20;99.90;;;;;;5033616;28;20022;-69
2022/10/02 00:56:22;;;;;;;4.80;2.50;;;15.30;99.90;;;;;;5031610;28;20029;-66
2022/10/02 00:58:51;;;;;;;4.68;2.35;;;15.20;99.90;;;;;;5032193;28;20153;-68
2022/10/02 01:01:40;;;;;;;4.80;2.95;;;15.30;99.90;;;;;;5032062;28;20092;-68
2022/10/02 01:04:12;;;;;;;6.22;2.40;;;15.30;99.90;;;;;;5032276;28;20029;-69
2022/10/02 01:06:38;;;;;;;5.43;2.63;;;15.30;99.90;;;;;;5034800;28;20079;-68
2022/10/02 01:09:05;;;;;;;9.05;2.50;;;15.40;99.90;;;;;;5042922;28;20049;-67
2022/10/02 01:11:32;;;;;;;7.32;3.00;;;15.40;99.90;;;;;;5031868;28;20022;-69
2022/10/02 01:13:58;;;;;;;4.57;2.28;;;15.40;99.90;;;;;;5032206;28;20033;-69
2022/10/02 01:16:24;;;;;;;5.80;2.70;;;15.40;99.90;;;;;;5032148;28;20049;-68
2022/10/02 01:18:50;;;;;;;5.88;2.58;;;15.40;99.90;;;;;;5031796;28;20037;-69
2022/10/02 01:21:37;;;;;;;4.63;2.30;;;15.40;99.90;;;;;;5032159;28;20028;-67
2022/10/02 01:24:23;;;;;;;4.35;2.75;;;15.40;99.90;;;;;;5033177;28;20049;-69
2022/10/02 01:26:49;;;;;;;4.38;2.53;;;15.40;99.90;;;;;;5032163;28;20125;-69
2022/10/02 01:29:15;;;;;;;5.05;2.42;;;15.40;99.90;;;;;;5031951;28;20104;-68
2022/10/02 01:31:41;;;;;;;5.15;2.75;;;15.40;99.90;;;;;;5032123;28;20034;-68
2022/10/02 01:34:08;;;;;;;5.00;2.40;;;15.40;99.90;;;;;;5031998;28;20049;-68
2022/10/02 01:36:34;;;;;;;5.18;2.85;;;15.40;99.90;;;;;;5031802;28;20522;-69
2022/10/02 01:39:00;;;;;;;6.05;2.50;;;15.40;99.90;;;;;;5031876;28;20038;-69
2022/10/02 01:41:27;;;;;;;4.43;2.70;;;15.40;99.90;;;;;;5031018;28;20032;-68
2022/10/02 01:43:57;;;;;;;3.35;2.30;;;15.40;99.90;;;;;;5031669;28;20025;-68
2022/10/02 01:46:37;;;;;;;6.45;2.88;;;15.40;99.90;;;;;;5018519;28;20072;-68
2022/10/02 01:49:14;;;;;;;6.40;2.78;;;15.40;99.90;;;;;;5032662;28;20365;-68
2022/10/02 01:52:19;;;;;;;8.48;3.33;;;15.40;99.90;;;;;;5035293;28;20026;-69
2022/10/02 01:54:55;;;;;;;6.95;3.00;;;15.40;99.90;;;;;;5035095;28;20018;-67
2022/10/02 01:57:28;;;;;;;5.55;2.95;;;15.40;99.90;;;;;;5035441;28;20025;-66
2022/10/02 02:00:06;;;;;;;4.43;2.58;;;15.40;99.90;;;;;;5034600;28;20029;-68
2022/10/02 02:02:55;;;;;;;10.90;2.67;;;15.40;99.90;;;;;;5035197;28;20041;-69
2022/10/02 02:05:48;;;;;;;4.95;2.67;;;15.40;99.90;;;;;;5034818;28;20556;-68
2022/10/02 02:08:20;;;;;;;4.15;2.55;;;15.40;99.90;;;;;;5036564;28;20084;-68
2022/10/02 02:11:00;;;;;;;5.68;2.75;;;15.30;99.90;;;;;;5034863;28;20029;-68
2022/10/02 02:13:52;;;;;;;4.68;2.88;;;15.30;99.90;;;;;;5034686;28;20484;-69
2022/10/02 02:16:26;;;;;;;5.43;2.80;;;15.30;99.90;;;;;;5033647;28;20688;-69
2022/10/02 02:19:04;;;;;;;7.65;3.03;;;15.30;99.90;;;;;;5034725;28;20048;-69
2022/10/02 02:21:59;;;;;;;5.85;2.72;;;15.30;99.90;;;;;;5034986;28;20076;-69
2022/10/02 02:24:33;;;;;;;5.78;3.08;;;15.20;99.90;;;;;;5018790;28;20037;-68
2022/10/02 02:27:01;;;;;;;15.13;3.00;;;15.20;99.90;;;;;;5034429;28;20029;-69
2022/10/02 02:29:31;;;;;;;4.20;2.35;;;15.10;99.90;;;;;;5034714;28;20033;-67
2022/10/02 02:31:58;;;;;;;5.25;2.60;;;15.10;99.90;;;;;;5034518;28;20040;-69
2022/10/02 02:34:41;;;;;;;4.80;2.83;;;15.00;99.90;;;;;;5034490;28;20365;-69
2022/10/02 02:37:10;;;;;;;;;;;15.00;99.90;;;;;;5034695;28;20120;-69
2022/10/02 02:39:55;;;;;;;4.47;3.08;;;14.90;99.90;;;;;;5034320;28;19979;-69
2022/10/02 02:42:24;;;;;;;6.30;2.65;;;14.90;99.90;;;;;;5034635;28;20021;-69
2022/10/02 02:44:58;;;;;;;4.93;2.85;;;;;;;;;;5034420;28;20472;-69
2022/10/02 02:47:39;;;;;;;5.53;2.70;;;14.80;99.90;;;;;;5034495;28;20559;-69
2022/10/02 02:50:25;;;;;;;7.22;3.30;;;14.80;99.90;;;;;;5034472;28;20031;-68
2022/10/02 02:53:03;;;;;;;7.53;2.80;;;14.70;99.90;;;;;;5034257;28;20060;-69
2022/10/02 02:55:41;;;;;;;7.88;3.05;;;14.70;99.90;;;;;;5033716;28;20479;-69
2022/10/02 02:58:22;;;;;;;5.88;3.03;;;14.60;99.90;;;;;;5027167;28;20029;-69
2022/10/02 03:00:48;;;;;;;3.88;2.83;;;14.50;99.90;;;;;;5033947;28;20028;-69
2022/10/02 03:03:14;;;;;;;3.95;2.70;;;14.60;99.90;;;;;;5034015;28;20029;-69
2022/10/02 03:05:44;;;;;;;4.90;2.80;;;14.50;99.90;;;;;;5033376;28;20025;-68
2022/10/02 03:08:23;;;;;;;7.75;3.33;;;14.50;99.90;;;;;;5035423;28;20582;-69
2022/10/02 03:11:04;;;;;;;5.35;2.45;;;14.50;99.90;;;;;;5033686;28;20037;-69
2022/10/02 03:13:29;;;;;;;3.78;2.65;;;14.40;99.90;;;;;;5033744;28;20100;-69
2022/10/02 03:16:13;;;;;;;5.28;2.80;;;14.40;99.90;;;;;;5033580;28;20097;-69
2022/10/02 03:18:53;;;;;;;7.57;3.03;;;14.40;99.90;;;;;;5033570;28;20053;-69
2022/10/02 03:21:21;;;;;;;4.47;2.90;;;14.40;99.90;;;;;;5033778;28;20671;-69
2022/10/02 03:23:58;;;;;;;5.63;2.78;;;14.30;99.90;;;;;;5032960;28;20116;-69
2022/10/02 03:27:02;;;;;;;3.72;2.33;;;14.30;99.90;;;;;;5033620;28;20022;-69
2022/10/02 03:29:42;;;;;;;4.55;2.33;;;14.20;99.90;;;;;;4952344;29;20031;-69
2022/10/02 03:32:12;;;;;;;5.05;2.85;;;14.20;99.90;;;;;;4953114;29;20039;-67
2022/10/02 03:34:39;;;;;;;7.65;2.72;;;14.20;99.90;;;;;;4952994;28;20035;-69
2022/10/02 03:37:06;;;;;;;4.75;2.55;;;14.20;99.90;;;;;;4952551;29;20047;-69
2022/10/02 03:39:32;;;;;;;3.22;2.35;;;14.20;99.90;;;;;;4953010;29;20084;-68
2022/10/02 03:41:59;;;;;;;5.32;2.65;;;14.20;99.90;;;;;;4953481;29;20023;-69
2022/10/02 03:44:25;;;;;;;4.60;2.50;;;14.10;99.90;;;;;;4953034;29;20604;-69
2022/10/02 03:46:51;;;;;;;6.07;2.60;;;14.20;99.90;;;;;;4952912;29;20030;-69
2022/10/02 03:49:16;;;;;;;5.03;2.35;;;14.20;99.90;;;;;;4952069;29;20042;-69
2022/10/02 03:51:42;;;;;;;3.33;2.10;;;14.10;99.90;;;;;;4951616;29;20057;-69
2022/10/02 03:54:17;;;;;;;3.63;2.15;;;14.10;99.90;;;;;;4952095;29;20046;-69
2022/10/02 03:56:51;;;;;;;3.65;1.98;;;14.10;99.90;;;;;;4952818;29;20039;-68
2022/10/02 03:59:30;;;;;;;4.63;2.38;;;14.10;99.90;;;;;;4952722;29;20050;-69
2022/10/02 04:01:58;;;;;;;3.30;2.35;;;14.00;99.90;;;;;;4952442;28;20474;-69
2022/10/02 04:04:30;;;;;;;5.35;2.08;;;14.10;99.90;;;;;;5027017;28;20025;-69
2022/10/02 04:07:04;;;;;;;7.80;2.90;;;14.00;99.90;;;;;;5037651;28;20495;-69
2022/10/02 04:09:42;;;;;;;5.65;2.00;;;14.00;99.90;;;;;;5039604;28;20025;-69
2022/10/02 04:12:09;;;;;;;2.97;2.60;;;13.90;99.90;;;;;;5032057;28;20037;-68
2022/10/02 04:14:44;;;;;;;5.30;2.47;;;13.90;99.90;;;;;;5032132;28;20104;-69
2022/10/02 04:17:35;;;;;;;6.70;2.63;;;13.90;99.90;;;;;;5032178;28;20032;-69
2022/10/02 04:20:13;;;;;;;8.40;2.90;;;13.90;99.90;;;;;;5033063;28;20041;-69
2022/10/02 04:22:46;;;;;;;4.03;2.33;;;13.80;99.90;;;;;;5032206;28;20025;-68
2022/10/02 04:25:17;;;;;;;9.50;2.97;;;13.80;99.90;;;;;;5029120;28;20524;-69
2022/10/02 04:28:01;;;;;;;6.47;2.90;;;13.80;99.90;;;;;;5032634;28;20021;-69
2022/10/02 04:30:28;;;;;;;5.40;2.67;;;13.80;99.90;;;;;;5032568;28;20246;-69
2022/10/02 04:33:09;;;;;;;5.43;2.63;;;13.70;99.90;;;;;;5015421;28;20423;-69
2022/10/02 04:35:44;;;;;;;5.32;2.40;;;13.70;99.90;;;;;;5032304;28;20460;-69
2022/10/02 04:38:39;;;;;;;5.00;2.38;;;13.70;99.90;;;;;;5032374;28;20037;-69
2022/10/02 04:41:07;;;;;;;4.20;2.58;;;13.70;99.90;;;;;;5006402;28;20073;-67
2022/10/02 04:43:46;;;;;;;4.28;2.33;;;13.70;99.90;;;;;;5010032;28;20056;-69
2022/10/02 04:46:34;;;;;;;5.10;2.53;;;13.70;99.90;;;;;;5010192;28;20072;-66
2022/10/02 04:49:21;;;;;;;6.38;2.67;;;13.80;99.90;;;;;;5006120;28;20034;-65
2022/10/02 04:51:55;;;;;;;6.95;2.47;;;13.80;99.90;;;;;;5010011;28;20492;-64
2022/10/02 04:54:41;;;;;;;4.75;2.47;;;13.80;99.90;;;;;;5010164;28;20373;-64
2022/10/02 04:57:15;;;;;;;6.28;2.40;;;13.80;99.90;;;;;;5009936;28;20539;-65
2022/10/02 04:59:52;;;;;;;6.28;2.30;;;14.30;99.90;;;;;;5009846;28;20050;-67
2022/10/02 05:02:36;;;;;;;6.78;2.00;;;14.90;99.90;;;;;;5009873;28;20026;-67
2022/10/02 05:05:05;;;;;;;5.18;2.65;;;15.10;99.90;;;;;;5009907;28;20440;-64
2022/10/02 05:07:33;;;;;;;3.88;1.95;;;15.20;99.90;;;;;;5019568;28;20381;-68
2022/10/02 05:10:36;;;;;;;6.10;2.88;;;15.00;99.90;;;;;;5012060;28;20032;-69
2022/10/02 05:13:26;;;;;;;5.07;3.10;;;15.90;99.90;;;;;;5009815;28;20595;-69
2022/10/02 05:16:10;;;;;;;5.90;2.90;;;16.50;99.90;;;;;;5010082;28;20025;-65
2022/10/02 05:19:00;;;;;;;11.77;2.78;;;17.10;99.90;;;;;;5011594;28;20514;-68
2022/10/02 05:21:59;;;;;;;2.38;2.03;;;17.60;99.90;;;;;;5024820;28;20433;-69
2022/10/02 05:24:49;;;;;;;4.93;2.17;;;18.10;99.90;;;;;;5033075;28;20025;-68
2022/10/02 05:27:52;;;;;;;4.93;2.65;;;18.70;99.90;;;;;;5035742;28;20040;-69
2022/10/02 05:30:18;;;;;;;6.47;2.63;;;18.30;99.90;;;;;;5033905;28;20033;-68
2022/10/02 05:33:31;;;;;;;4.10;2.33;;;19.40;99.90;;;;;;5032701;28;20049;-64
2022/10/02 05:35:57;;;;;;;6.65;2.80;;;20.00;99.90;;;;;;4995773;28;20046;-65
2022/10/02 05:38:49;;;;;;;2.50;2.28;;;19.80;99.90;;;;;;5012326;28;20049;-68
2022/10/02 05:41:24;;;;;;;2.30;1.97;;;20.00;99.90;;;;;;5012312;28;20030;-69
2022/10/02 05:44:02;;;;;;;5.95;2.78;;;20.10;99.90;;;;;;5011843;28;20299;-66
2022/10/02 05:46:35;;;;;;;2.45;1.98;;;20.60;99.90;;;;;;5000491;28;21051;-68
2022/10/02 05:49:28;;;;;;;7.38;2.35;;;21.10;99.90;;;;;;4990418;28;20493;-66
2022/10/02 05:52:05;;;;;;;5.30;2.08;;;21.30;99.90;;;;;;4992141;28;20412;-66
2022/10/02 05:54:37;;;;;;;5.05;2.42;;;20.90;99.90;;;;;;4991314;28;20078;-66
2022/10/02 05:57:21;;;;;;;8.98;2.78;;;21.00;99.90;;;;;;4991577;28;20046;-68
2022/10/02 06:00:05;;;;;;;17.73;2.67;;;19.50;99.90;;;;;;4998092;28;20053;-66
2022/10/02 06:02:51;;;;;;;5.10;2.75;;;19.00;99.90;;;;;;4998822;28;20030;-67
2022/10/02 06:05:28;;;;;;;3.58;2.25;;;18.20;99.90;;;;;;4995073;28;20460;-67
2022/10/02 06:07:57;;;;;;;3.78;2.20;;;17.90;99.90;;;;;;5004697;28;20478;-65
2022/10/02 06:10:29;;;;;;;7.82;2.58;;;17.50;99.90;;;;;;5011901;28;20029;-64
2022/10/02 06:13:01;;;;;;;6.75;2.92;;;17.50;99.90;;;;;;5033888;28;20026;-68
2022/10/02 06:15:45;;;;;;;6.45;3.10;;;17.40;99.90;;;;;;5034064;28;20032;-68
2022/10/02 06:18:18;;;;;;;7.93;3.10;;;17.30;99.90;;;;;;5034113;28;20104;-68
2022/10/02 06:20:50;;;;;;;5.93;3.03;;;17.30;99.90;;;;;;5034059;28;20169;-68
2022/10/02 06:23:46;;;;;;;5.95;3.15;;;17.20;99.90;;;;;;5033882;28;20040;-68
2022/10/02 06:26:35;;;;;;;5.75;3.15;;;17.20;99.90;;;;;;5034386;28;20439;-63
2022/10/02 06:29:27;;;;;;;3.80;2.55;;;17.30;99.90;;;;;;5032512;28;20022;-68
2022/10/02 06:32:20;;;;;;;5.32;2.72;;;17.40;99.90;;;;;;4992638;28;20038;-66
2022/10/02 06:34:46;;;;;;;4.78;2.30;;;17.30;99.90;;;;;;4991658;28;20139;-67
2022/10/02 06:37:24;;;;;;;4.18;2.85;;;17.30;99.90;;;;;;4992544;28;20397;-68
2022/10/02 06:40:11;;;;;;;5.10;2.63;;;17.40;99.90;;;;;;4992134;28;20125;-67
2022/10/02 06:43:03;;;;;;;7.22;2.28;;;17.60;99.90;;;;;;4992013;28;20113;-67
2022/10/02 06:45:52;;;;;;;9.68;3.92;;;17.80;99.90;;;;;;4991770;28;20132;-68
2022/10/02 06:48:39;;;;;;;7.13;2.60;;;18.00;99.90;;;;;;4992281;28;20061;-67
2022/10/02 06:51:18;;;;;;;6.95;2.22;;;18.00;99.90;;;;;;4991741;28;20109;-68
2022/10/02 06:54:02;;;;;;;8.63;2.25;;;18.00;99.90;;;;;;4991636;28;20038;-67
2022/10/02 06:56:49;;;;;;;6.35;2.92;;;18.10;99.90;;;;;;4992231;28;20042;-67
2022/10/02 06:59:33;;;;;;;6.22;2.10;;;18.10;99.90;;;;;;4992178;28;20069;-67
2022/10/02 07:02:16;;;;;;;5.20;2.33;;;18.20;99.90;;;;;;4992203;28;20418;-68
2022/10/02 07:04:57;;;;;;;;;;;18.20;99.90;;;;;;4975141;28;20033;-68
2022/10/02 07:08:01;;;;;;;4.05;1.88;;;18.30;99.90;;;;;;4990698;28;19921;-67
2022/10/02 07:10:27;;;;;;;4.43;1.80;;;18.30;99.90;;;;;;5032618;28;20029;-68
2022/10/02 07:13:22;;;;;;;4.00;1.90;;;18.50;99.90;;;;;;5031713;28;20383;-67
2022/10/02 07:16:07;;;;;;;3.53;1.77;;;18.50;99.90;;;;;;4952377;29;20313;-67
2022/10/02 07:18:43;;;;;;;3.38;1.70;;;18.50;99.90;;;;;;4951853;29;20114;-69
2022/10/02 07:21:43;;;;;;;3.88;1.58;;;18.60;99.90;;;;;;4951939;29;20538;-69
2022/10/02 07:24:18;;;;;;;3.55;2.00;;;18.40;99.90;;;;;;4914210;29;20048;-67
2022/10/02 07:27:21;;;;;;;5.60;2.28;;;18.60;99.90;;;;;;4914961;29;20032;-68
2022/10/02 07:30:09;;;;;;;4.50;1.77;;;18.60;99.90;;;;;;4876953;29;20096;-68
2022/10/02 07:32:56;;;;;;;5.07;1.80;;;18.60;99.90;;;;;;4877284;29;20037;-68
2022/10/02 07:35:47;;;;;;;3.67;1.73;;;18.60;99.90;;;;;;4876777;29;20051;-68
2022/10/02 07:38:49;;;;;;;4.32;1.67;;;18.80;99.90;;;;;;4877012;29;20053;-67
2022/10/02 07:41:29;;;;;;;2.83;2.03;;;18.80;99.90;;;;;;4877320;29;20538;-67
2022/10/02 07:44:08;;;;;;;4.35;1.92;;;18.80;99.90;;;;;;4876739;29;20523;-68
2022/10/02 07:47:24;;;;;;;6.78;2.45;;;18.80;99.90;;;;;;4876074;29;20480;-68
2022/10/02 07:50:10;;;;;;;4.75;1.90;;;19.00;99.90;;;;;;4803474;29;20053;-67
2022/10/02 07:52:51;;;;;;;3.30;1.50;;;18.90;99.90;;;;;;4814801;29;20125;-67
2022/10/02 07:55:20;;;;;;;4.03;1.73;;;19.00;99.90;;;;;;4821433;29;20069;-67
2022/10/02 07:58:03;;;;;;;3.17;1.52;;;19.00;99.90;;;;;;4821621;29;20022;-68
2022/10/02 08:00:36;;;;;;;5.82;2.10;;;19.10;99.90;;;;;;4829934;29;20133;-65
2022/10/02 08:03:11;;;;;;;2.95;1.98;;;19.30;99.90;;;;;;4839427;29;20104;-67
2022/10/02 08:05:46;;;;;;;5.93;1.80;;;19.30;99.90;;;;;;4847135;29;20034;-67
2022/10/02 08:08:30;;;;;;;1.10;1.00;;;19.30;99.90;;;;;;4911848;29;20049;-68
2022/10/02 08:11:27;;;;;;;5.88;2.10;;;19.40;99.90;;;;;;4914229;29;20479;-67
2022/10/02 08:13:55;;;;;;;4.03;2.08;;;19.40;99.90;;;;;;4913438;29;20032;-68
2022/10/02 08:16:33;;;;;;;6.10;1.88;;;19.50;99.90;;;;;;4913982;29;20176;-67
2022/10/02 08:19:04;;;;;;;3.33;1.75;;;19.60;99.90;;;;;;4913587;29;20052;-67
2022/10/02 08:21:39;;;;;;;3.17;1.60;;;19.50;99.90;;;;;;4913639;29;20624;-66
2022/10/02 08:24:22;;;;;;;5.85;1.90;;;19.40;99.90;;;;;;4912695;29;20115;-67
2022/10/02 08:27:09;;;;;;;1.98;1.30;;;19.60;99.90;;;;;;5031555;28;20025;-67
2022/10/02 08:29:39;;;;;;;3.47;1.63;;;19.60;99.90;;;;;;5032029;28;20068;-68
2022/10/02 08:32:12;;;;;;;3.15;1.88;;;19.60;99.90;;;;;;5032033;28;20029;-68
2022/10/02 08:34:39;;;;;;;10.30;2.33;;;19.70;99.90;;;;;;5031939;28;20117;-67
2022/10/02 08:37:29;;;;;;;2.47;1.33;;;19.60;99.90;;;;;;5032048;28;20029;-68
2022/10/02 08:40:47;;;;;;;3.25;1.92;;;19.70;99.90;;;;;;5031757;28;20075;-68
2022/10/02 08:43:36;;;;;;;3.83;1.77;;;19.80;99.90;;;;;;4951230;29;20063;-68
2022/10/02 08:46:16;;;;;;;3.47;1.40;;;19.80;99.90;;;;;;4951400;29;20035;-67
2022/10/02 08:49:01;;;;;;;4.10;1.67;;;19.90;99.90;;;;;;4951473;29;20031;-68
2022/10/02 08:51:36;;;;;;;2.72;1.55;;;20.00;99.90;;;;;;4950186;28;20568;-67
2022/10/02 08:54:34;;;;;;;1.83;1.65;;;19.90;99.90;;;;;;4951386;29;20035;-67
2022/10/02 08:57:17;;;;;;;2.97;1.95;;;19.80;99.90;;;;;;4952339;29;20042;-67
2022/10/02 09:00:18;;;;;;;1.52;1.17;;;20.10;99.90;;;;;;4950005;29;20090;-68
2022/10/02 09:03:17;;;;;;;2.85;1.45;;;20.20;99.90;;;;;;4950045;29;20075;-69
2022/10/02 09:06:01;;;;;;;2.13;1.30;;;20.50;99.90;;;;;;4951746;28;20059;-68
2022/10/02 09:08:32;;;;;;;6.68;1.58;;;20.60;99.90;;;;;;4951829;29;20146;-69
2022/10/02 09:11:26;;;;;;;2.10;1.50;;;20.70;99.90;;;;;;4952193;29;20047;-69
2022/10/02 09:14:04;;;;;;;2.85;1.30;;;20.60;99.90;;;;;;4952006;29;20051;-68
2022/10/02 09:16:36;;;;;;;4.68;1.23;;;20.70;99.90;;;;;;4951749;29;20556;-68
2022/10/02 09:19:18;;;;;;;3.05;1.08;;;20.60;99.90;;;;;;5008892;28;20053;-68
2022/10/02 09:22:08;;;;;;;1.33;1.08;;;20.60;99.90;;;;;;5031272;28;20030;-69
2022/10/02 09:24:45;;;;;;;3.28;0.90;;;20.50;99.90;;;;;;5031300;28;20029;-68
2022/10/02 09:27:29;;;;;;;1.10;0.90;;;20.60;99.90;;;;;;5032099;28;20396;-69
2022/10/02 09:30:15;;;;;;;2.38;1.27;;;20.50;99.90;;;;;;5032169;28;20136;-66
2022/10/02 09:33:15;;;;;;;2.08;1.27;;;20.70;99.90;;;;;;5031804;28;20033;-69
2022/10/02 09:36:23;;;;;;;1.67;1.13;;;20.60;99.90;;;;;;5031768;28;20036;-69
2022/10/02 09:39:08;;;;;;;2.20;0.75;;;20.60;99.90;;;;;;5031649;28;20042;-68
2022/10/02 09:42:05;;;;;;;1.33;1.13;;;20.70;99.90;;;;;;5031896;28;20026;-70
2022/10/02 09:45:09;;;;;;;1.50;0.90;;;20.70;99.90;;;;;;5031391;28;20158;-69
2022/10/02 09:48:03;;;;;;;1.75;1.30;;;20.70;99.90;;;;;;4951399;29;20529;-68
2022/10/02 09:51:06;;;;;;;0.80;0.80;;;20.70;99.90;;;;;;4951638;29;20039;-69
2022/10/02 09:53:35;;;;;;;;;;;20.90;99.90;;;;;;4951250;29;20390;-69
2022/10/02 09:56:29;;;;;;;1.30;0.77;;;20.90;99.90;;;;;;4951189;29;19907;-68
2022/10/02 09:59:20;;;;;;;2.80;1.13;;;20.90;99.90;;;;;;4911873;29;20810;-68
2022/10/02 10:02:01;;;;;;;1.45;0.73;;;20.90;99.90;;;;;;4909473;29;20115;-68
2022/10/02 10:04:45;;;;;;;0.70;0.70;;;21.00;99.90;;;;;;4910682;29;20558;-69
2022/10/02 10:07:48;;;;;;;0.70;0.60;;;20.80;99.90;;;;;;4904326;29;20136;-69
2022/10/02 10:10:49;;;;;;;1.00;0.88;;;20.80;99.90;;;;;;4898705;29;20036;-67
2022/10/02 10:13:39;;;;;;;1.55;0.77;;;20.80;99.90;;;;;;4915452;29;20129;-70
2022/10/02 10:16:28;;;;;;;0.60;0.60;;;20.90;99.90;;;;;;4915232;29;20171;-68
2022/10/02 10:19:01;;;;;;;0.82;0.60;;;20.90;99.90;;;;;;4904002;29;20146;-69
2022/10/02 10:21:32;;;;;;;2.10;1.00;;;21.00;99.90;;;;;;4915697;29;20107;-68
2022/10/02 10:24:29;;;;;;;1.42;0.70;;;20.90;99.90;;;;;;4933094;28;20093;-69
2022/10/02 10:27:00;;;;;;;2.05;0.70;;;21.00;99.90;;;;;;4973338;28;20031;-69
2022/10/02 10:29:44;;;;;;;0.90;0.55;;;20.90;99.90;;;;;;4973077;28;20605;-69
2022/10/02 10:32:40;;;;;;;2.85;0.73;;;21.00;99.90;;;;;;4972778;28;20089;-68
2022/10/02 10:35:14;;;;;;;1.20;0.70;;;20.90;99.90;;;;;;4966179;28;20029;-69
2022/10/02 10:38:31;;;;;;;2.70;0.82;;;21.00;99.90;;;;;;5034006;28;20053;-69
2022/10/02 10:41:34;;;;;;;0.90;0.45;;;21.10;99.90;;;;;;5033439;28;20047;-68
2022/10/02 10:44:17;;;;;;;1.33;1.00;;;21.20;99.90;;;;;;5033281;28;20543;-68
2022/10/02 10:46:49;;;;;;;;;;;21.20;99.90;;;;;;5033995;28;20029;-68
2022/10/02 10:49:34;;;;;;;1.13;0.82;;;21.10;99.90;;;;;;5033927;28;19909;-68
2022/10/02 10:52:12;;;;;;;0.82;0.82;;;21.20;99.90;;;;;;5034209;28;20076;-68
2022/10/02 10:55:13;;;;;;;2.80;1.20;;;21.20;99.90;;;;;;5034045;28;20060;-68
2022/10/02 10:57:41;;;;;;;0.60;0.55;;;21.00;99.90;;;;;;4953219;29;20517;-67
2022/10/02 11:00:13;;;;;;;4.63;0.77;;;21.00;99.90;;;;;;4953421;29;20078;-67
2022/10/02 11:03:05;;;;;;;1.58;0.90;;;20.90;99.90;;;;;;4953138;29;20043;-68
2022/10/02 11:05:34;;;;;;;0.95;0.57;;;21.00;99.90;;;;;;4953192;29;20046;-68
2022/10/02 11:08:21;;;;;;;1.50;0.90;;;21.10;99.90;;;;;;4939258;29;20058;-68
2022/10/02 11:11:01;;;;;;;3.00;1.13;;;21.10;99.90;;;;;;4953147;29;20127;-68
2022/10/02 11:13:33;;;;;;;1.25;0.65;;;21.20;99.90;;;;;;4952904;29;20351;-68
2022/10/02 11:16:07;;;;;;;2.72;0.77;;;21.30;99.90;;;;;;4968346;28;20039;-67
2022/10/02 11:19:21;;;;;;;1.10;1.00;;;21.40;99.90;;;;;;4952643;29;20047;-68
2022/10/02 11:22:20;;;;;;;1.77;0.73;;;21.30;99.90;;;;;;4953107;28;20063;-68
2022/10/02 11:25:30;;;;;;;2.25;0.75;;;21.30;99.90;;;;;;4953137;29;20165;-68
2022/10/02 11:28:31;;;;;;;0.77;0.57;;;21.20;99.90;;;;;;4942559;29;20091;-67
2022/10/02 11:31:28;;;;;;;2.47;0.88;;;21.40;99.90;;;;;;4953454;29;20461;-68
2022/10/02 11:34:10;;;;;;;1.88;0.82;;;21.50;99.90;;;;;;4991060;28;20033;-68
2022/10/02 11:36:59;;;;;;;3.40;0.93;;;21.60;99.90;;;;;;5033532;28;20033;-67
2022/10/02 11:39:43;;;;;;;2.40;0.75;;;21.60;99.90;;;;;;5034016;28;20045;-68
2022/10/02 11:42:47;;;;;;;3.45;0.98;;;21.60;99.90;;;;;;5033321;28;20017;-67
2022/10/02 11:45:54;;;;;;;1.00;0.70;;;21.50;99.90;;;;;;5033520;28;20026;-67
2022/10/02 11:48:39;;;;;;;2.05;1.13;;;21.70;99.90;;;;;;5024055;28;20480;-68
2022/10/02 11:51:24;;;;;;;1.15;0.80;;;21.80;99.90;;;;;;5033233;28;20559;-68
2022/10/02 11:54:01;;;;;;;1.00;0.80;;;21.70;99.90;;;;;;5032419;28;20034;-68
2022/10/02 11:56:59;;;;;;;1.85;0.77;;;21.60;99.90;;;;;;5033139;28;20021;-68
2022/10/02 11:59:42;;;;;;;2.08;0.90;;;21.70;99.90;;;;;;5015557;28;20040;-68
2022/10/02 12:02:18;;;;;;;0.93;0.65;;;21.70;99.90;;;;;;5033214;28;20118;-68
2022/10/02 12:05:12;;;;;;;0.88;0.77;;;21.90;99.90;;;;;;5032899;28;20025;-68
2022/10/02 12:08:13;;;;;;;2.67;0.70;;;22.10;99.90;;;;;;5044124;28;20495;-68
2022/10/02 12:10:48;;;;;;;2.53;1.25;;;22.00;99.90;;;;;;4952536;29;20191;-68
2022/10/02 12:13:39;;;;;;;1.58;0.80;;;22.20;99.90;;;;;;4952670;29;20046;-68
2022/10/02 12:16:14;;;;;;;2.17;0.90;;;22.30;99.90;;;;;;4952808;29;20437;-68
2022/10/02 12:18:48;;;;;;;1.35;0.90;;;22.30;99.90;;;;;;4952453;29;20062;-68
2022/10/02 12:28:14;;;;;;;1.83;0.70;;;22.30;99.90;;;;;;4952396;29;20101;-67
2022/10/02 12:30:53;;;;;;;0.60;0.60;;;22.30;99.90;;;;;;4938186;29;20035;-68
2022/10/02 12:33:51;;;;;;;3.90;0.93;;;22.40;99.90;;;;;;4951428;28;20031;-68
2022/10/02 12:36:43;;;;;;;1.48;1.25;;;22.30;99.90;;;;;;4913802;29;20047;-68
2022/10/02 12:39:24;;;;;;;1.90;0.95;;;22.30;99.90;;;;;;4906418;29;20432;-68
2022/10/02 12:42:13;;;;;;;0.73;0.70;;;22.30;99.90;;;;;;4913337;29;20055;-68
2022/10/02 12:44:47;;;;;;;3.40;1.08;;;22.30;99.90;;;;;;4913478;29;20055;-67
2022/10/02 12:47:39;;;;;;;1.83;0.82;;;22.30;99.90;;;;;;4934238;28;20485;-68
2022/10/02 12:50:41;;;;;;;1.77;0.70;;;22.30;99.90;;;;;;4990841;28;20066;-68
2022/10/02 12:53:31;;;;;;;0.98;0.65;;;22.30;99.90;;;;;;4978504;28;20434;-68
2022/10/02 12:56:08;;;;;;;1.42;0.60;;;22.30;99.90;;;;;;4990786;28;20023;-68
2022/10/02 12:58:57;;;;;;;2.80;1.08;;;22.20;99.90;;;;;;4990666;28;20086;-68
2022/10/02 13:01:53;;;;;;;1.70;0.80;;;22.20;99.90;;;;;;4990715;28;20030;-67
2022/10/02 13:04:46;;;;;;;1.10;0.88;;;22.30;99.90;;;;;;4990332;28;20374;-68
2022/10/02 13:07:17;;;;;;;2.58;1.05;;;22.40;99.90;;;;;;4989715;28;20074;-68
2022/10/02 13:10:00;;;;;;;2.07;1.03;;;22.30;99.90;;;;;;4989949;28;20030;-68
2022/10/02 13:12:49;;;;;;;1.90;1.20;;;22.20;99.90;;;;;;5020135;28;20435;-68
2022/10/02 13:15:28;;;;;;;1.10;0.60;;;22.10;99.90;;;;;;5031612;28;20101;-68
2022/10/02 13:18:04;;;;;;;1.35;0.82;;;22.00;99.90;;;;;;5031505;28;20022;-68
2022/10/02 13:20:37;;;;;;;2.60;0.95;;;22.00;99.90;;;;;;5031254;28;20029;-68
2022/10/02 13:23:20;;;;;;;3.38;1.02;;;22.00;99.90;;;;;;5031728;28;20041;-67
2022/10/02 13:26:14;;;;;;;1.45;0.68;;;21.80;99.90;;;;;;5031933;28;20444;-68
2022/10/02 13:28:49;;;;;;;1.13;0.77;;;22.00;99.90;;;;;;5032010;28;20025;-68
2022/10/02 13:31:35;;;;;;;0.73;0.63;;;22.00;99.90;;;;;;5018911;28;20148;-68
2022/10/02 13:34:37;;;;;;;1.85;0.80;;;22.10;99.90;;;;;;5030825;28;20357;-68
2022/10/02 13:37:12;;;;;;;2.90;1.20;;;21.90;99.90;;;;;;5031606;28;20574;-68
2022/10/02 13:39:41;;;;;;;0.95;0.60;;;22.00;99.90;;;;;;5031835;28;20083;-68
2022/10/02 13:42:07;;;;;;;5.40;0.70;;;22.00;99.90;;;;;;5031966;28;20018;-68
2022/10/02 13:45:18;;;;;;;3.00;0.70;;;22.10;99.90;;;;;;5031927;28;20057;-67
2022/10/02 13:48:25;;;;;;;2.75;0.70;;;22.00;99.90;;;;;;5035296;28;20459;-67
2022/10/02 13:50:57;;;;;;;2.88;0.75;;;22.00;99.90;;;;;;5032180;28;20029;-67
2022/10/02 13:53:42;;;;;;;1.55;0.90;;;22.00;99.90;;;;;;5030459;28;20056;-67
2022/10/02 13:56:45;;;;;;;1.45;0.57;;;22.00;99.90;;;;;;5035155;28;20479;-65
2022/10/02 13:59:37;;;;;;;1.08;0.77;;;21.90;99.90;;;;;;5033375;28;20120;-67
2022/10/02 14:02:06;;;;;;;2.28;0.93;;;21.90;99.90;;;;;;5030157;28;20075;-67
2022/10/02 14:04:45;;;;;;;1.00;0.75;;;22.00;99.90;;;;;;5033576;28;20079;-68
2022/10/02 14:07:25;;;;;;;0.95;0.80;;;22.00;99.90;;;;;;5030973;28;20426;-67
2022/10/02 14:10:13;;;;;;;5.35;0.80;;;22.00;99.90;;;;;;5034413;28;20084;-67